sensor_id;sensor_type;location;lat;lon;timestamp;P1;durP1;ratioP1;P2;durP2;ratioP2
29788;SDS011;64899;42.660;23.268;2023-04-06T00:01:38;14.73;;;9.30;;
29788;SDS011;64899;42.660;23.268;2023-04-06T00:04:04;14.38;;;9.77;;
29788;SDS011;64899;42.660;23.268;2023-04-06T00:06:30;14.18;;;10.15;;
29788;SDS011;64899;42.660;23.268;2023-04-06T00:08:56;13.50;;;9.45;;
29788;SDS011;64899;42.660;23.268;2023-04-06T00:11:22;13.57;;;9.63;;
29788;SDS011;64899;42.660;23.268;2023-04-06T00:13:48;14.88;;;8.85;;
29788;SDS011;64899;42.660;23.268;2023-04-06T00:16:13;11.50;;;8.25;;
29788;SDS011;64899;42.660;23.268;2023-04-06T00:18:39;12.57;;;8.18;;
29788;SDS011;64899;42.660;23.268;2023-04-06T00:21:04;10.95;;;7.82;;
29788;SDS011;64899;42.660;23.268;2023-04-06T00:23:30;13.57;;;9.38;;
29788;SDS011;64899;42.660;23.268;2023-04-06T00:25:55;11.75;;;8.48;;
29788;SDS011;64899;42.660;23.268;2023-04-06T00:28:21;14.95;;;9.52;;
29788;SDS011;64899;42.660;23.268;2023-04-06T00:30:50;10.55;;;8.38;;
29788;SDS011;64899;42.660;23.268;2023-04-06T00:33:17;12.48;;;9.20;;
29788;SDS011;64899;42.660;23.268;2023-04-06T00:35:43;10.35;;;8.30;;
29788;SDS011;64899;42.660;23.268;2023-04-06T00:38:09;14.20;;;9.50;;
29788;SDS011;64899;42.660;23.268;2023-04-06T00:40:35;14.88;;;9.38;;
29788;SDS011;64899;42.660;23.268;2023-04-06T00:43:00;11.68;;;8.63;;
29788;SDS011;64899;42.660;23.268;2023-04-06T00:45:25;12.32;;;8.48;;
29788;SDS011;64899;42.660;23.268;2023-04-06T00:47:51;11.45;;;8.90;;
29788;SDS011;64899;42.660;23.268;2023-04-06T00:50:16;12.55;;;9.10;;
29788;SDS011;64899;42.660;23.268;2023-04-06T00:52:42;13.70;;;9.43;;
29788;SDS011;64899;42.660;23.268;2023-04-06T00:55:07;12.40;;;8.60;;
29788;SDS011;64899;42.660;23.268;2023-04-06T00:57:33;12.85;;;8.85;;
29788;SDS011;64899;42.660;23.268;2023-04-06T00:59:58;13.38;;;9.82;;
29788;SDS011;64899;42.660;23.268;2023-04-06T01:02:24;15.48;;;9.95;;
29788;SDS011;64899;42.660;23.268;2023-04-06T01:04:51;12.02;;;9.40;;
29788;SDS011;64899;42.660;23.268;2023-04-06T01:07:17;16.27;;;10.35;;
29788;SDS011;64899;42.660;23.268;2023-04-06T01:09:42;15.40;;;9.90;;
29788;SDS011;64899;42.660;23.268;2023-04-06T01:12:08;15.30;;;9.93;;
29788;SDS011;64899;42.660;23.268;2023-04-06T01:14:33;12.35;;;8.75;;
29788;SDS011;64899;42.660;23.268;2023-04-06T01:16:59;13.65;;;9.43;;
29788;SDS011;64899;42.660;23.268;2023-04-06T01:19:27;13.95;;;9.23;;
29788;SDS011;64899;42.660;23.268;2023-04-06T01:21:53;13.32;;;8.50;;
29788;SDS011;64899;42.660;23.268;2023-04-06T01:24:19;13.45;;;9.25;;
29788;SDS011;64899;42.660;23.268;2023-04-06T01:26:45;14.32;;;10.43;;
29788;SDS011;64899;42.660;23.268;2023-04-06T01:29:10;13.35;;;9.82;;
29788;SDS011;64899;42.660;23.268;2023-04-06T01:31:36;14.88;;;11.55;;
29788;SDS011;64899;42.660;23.268;2023-04-06T01:34:02;14.93;;;9.63;;
29788;SDS011;64899;42.660;23.268;2023-04-06T01:36:27;15.82;;;10.50;;
29788;SDS011;64899;42.660;23.268;2023-04-06T01:38:53;25.20;;;13.50;;
29788;SDS011;64899;42.660;23.268;2023-04-06T01:41:18;21.17;;;12.38;;
29788;SDS011;64899;42.660;23.268;2023-04-06T01:43:44;15.85;;;10.45;;
29788;SDS011;64899;42.660;23.268;2023-04-06T01:46:10;14.23;;;8.73;;
29788;SDS011;64899;42.660;23.268;2023-04-06T01:48:35;12.73;;;8.52;;
29788;SDS011;64899;42.660;23.268;2023-04-06T01:51:01;13.25;;;9.95;;
29788;SDS011;64899;42.660;23.268;2023-04-06T01:53:27;14.45;;;9.82;;
29788;SDS011;64899;42.660;23.268;2023-04-06T01:55:52;13.15;;;9.25;;
29788;SDS011;64899;42.660;23.268;2023-04-06T01:58:17;13.13;;;9.00;;
29788;SDS011;64899;42.660;23.268;2023-04-06T02:00:43;14.07;;;9.60;;
29788;SDS011;64899;42.660;23.268;2023-04-06T02:03:08;13.38;;;9.52;;
29788;SDS011;64899;42.660;23.268;2023-04-06T02:05:34;12.68;;;8.45;;
29788;SDS011;64899;42.660;23.268;2023-04-06T02:08:06;12.50;;;8.30;;
29788;SDS011;64899;42.660;23.268;2023-04-06T02:10:35;10.77;;;7.68;;
29788;SDS011;64899;42.660;23.268;2023-04-06T02:13:01;11.07;;;8.05;;
29788;SDS011;64899;42.660;23.268;2023-04-06T02:15:26;11.85;;;8.75;;
29788;SDS011;64899;42.660;23.268;2023-04-06T02:17:52;13.65;;;9.45;;
29788;SDS011;64899;42.660;23.268;2023-04-06T02:20:17;11.52;;;8.60;;
29788;SDS011;64899;42.660;23.268;2023-04-06T02:22:43;11.18;;;8.07;;
29788;SDS011;64899;42.660;23.268;2023-04-06T02:25:09;13.13;;;8.65;;
29788;SDS011;64899;42.660;23.268;2023-04-06T02:27:34;11.40;;;7.47;;
29788;SDS011;64899;42.660;23.268;2023-04-06T02:30:01;11.75;;;8.43;;
29788;SDS011;64899;42.660;23.268;2023-04-06T02:32:27;11.23;;;8.52;;
29788;SDS011;64899;42.660;23.268;2023-04-06T02:34:52;10.75;;;7.85;;
29788;SDS011;64899;42.660;23.268;2023-04-06T02:37:17;12.82;;;8.23;;
29788;SDS011;64899;42.660;23.268;2023-04-06T02:39:43;12.13;;;8.13;;
29788;SDS011;64899;42.660;23.268;2023-04-06T02:42:08;12.20;;;8.93;;
29788;SDS011;64899;42.660;23.268;2023-04-06T02:44:34;12.65;;;8.60;;
29788;SDS011;64899;42.660;23.268;2023-04-06T02:47:00;12.57;;;8.95;;
29788;SDS011;64899;42.660;23.268;2023-04-06T02:49:25;13.38;;;8.48;;
29788;SDS011;64899;42.660;23.268;2023-04-06T02:51:50;11.60;;;8.45;;
29788;SDS011;64899;42.660;23.268;2023-04-06T02:54:16;11.95;;;8.48;;
29788;SDS011;64899;42.660;23.268;2023-04-06T02:56:41;12.05;;;8.38;;
29788;SDS011;64899;42.660;23.268;2023-04-06T02:59:07;11.80;;;8.70;;
29788;SDS011;64899;42.660;23.268;2023-04-06T03:01:32;14.07;;;9.15;;
29788;SDS011;64899;42.660;23.268;2023-04-06T03:03:57;11.57;;;9.00;;
29788;SDS011;64899;42.660;23.268;2023-04-06T03:06:23;14.13;;;9.38;;
29788;SDS011;64899;42.660;23.268;2023-04-06T03:08:48;13.65;;;9.45;;
29788;SDS011;64899;42.660;23.268;2023-04-06T03:11:14;11.98;;;9.13;;
29788;SDS011;64899;42.660;23.268;2023-04-06T03:13:39;13.07;;;8.57;;
29788;SDS011;64899;42.660;23.268;2023-04-06T03:16:05;13.30;;;9.80;;
29788;SDS011;64899;42.660;23.268;2023-04-06T03:18:31;13.55;;;8.82;;
29788;SDS011;64899;42.660;23.268;2023-04-06T03:20:56;13.63;;;9.48;;
29788;SDS011;64899;42.660;23.268;2023-04-06T03:23:22;13.77;;;9.75;;
29788;SDS011;64899;42.660;23.268;2023-04-06T03:25:47;14.75;;;9.85;;
29788;SDS011;64899;42.660;23.268;2023-04-06T03:28:13;11.50;;;7.25;;
29788;SDS011;64899;42.660;23.268;2023-04-06T03:30:38;11.77;;;8.27;;
29788;SDS011;64899;42.660;23.268;2023-04-06T03:33:04;11.73;;;8.30;;
29788;SDS011;64899;42.660;23.268;2023-04-06T03:35:29;14.30;;;8.77;;
29788;SDS011;64899;42.660;23.268;2023-04-06T03:37:55;12.13;;;8.23;;
29788;SDS011;64899;42.660;23.268;2023-04-06T03:40:20;11.13;;;7.90;;
29788;SDS011;64899;42.660;23.268;2023-04-06T03:42:46;11.82;;;8.50;;
29788;SDS011;64899;42.660;23.268;2023-04-06T03:45:11;12.30;;;8.85;;
29788;SDS011;64899;42.660;23.268;2023-04-06T03:47:38;11.35;;;8.05;;
29788;SDS011;64899;42.660;23.268;2023-04-06T03:50:04;11.95;;;8.50;;
29788;SDS011;64899;42.660;23.268;2023-04-06T03:52:30;14.93;;;9.27;;
29788;SDS011;64899;42.660;23.268;2023-04-06T03:54:56;12.30;;;8.70;;
29788;SDS011;64899;42.660;23.268;2023-04-06T03:57:21;10.05;;;7.30;;
29788;SDS011;64899;42.660;23.268;2023-04-06T03:59:46;11.43;;;7.75;;
29788;SDS011;64899;42.660;23.268;2023-04-06T04:02:12;11.70;;;7.90;;
29788;SDS011;64899;42.660;23.268;2023-04-06T04:04:37;12.52;;;8.73;;
29788;SDS011;64899;42.660;23.268;2023-04-06T04:07:03;10.40;;;7.72;;
29788;SDS011;64899;42.660;23.268;2023-04-06T04:09:28;11.82;;;8.13;;
29788;SDS011;64899;42.660;23.268;2023-04-06T04:11:53;10.02;;;7.57;;
29788;SDS011;64899;42.660;23.268;2023-04-06T04:14:19;11.60;;;7.97;;
29788;SDS011;64899;42.660;23.268;2023-04-06T04:16:45;12.85;;;8.13;;
29788;SDS011;64899;42.660;23.268;2023-04-06T04:19:10;14.05;;;8.52;;
29788;SDS011;64899;42.660;23.268;2023-04-06T04:21:41;12.00;;;9.00;;
29788;SDS011;64899;42.660;23.268;2023-04-06T04:24:09;12.20;;;8.57;;
29788;SDS011;64899;42.660;23.268;2023-04-06T04:26:34;12.27;;;8.20;;
29788;SDS011;64899;42.660;23.268;2023-04-06T04:29:00;11.27;;;7.95;;
29788;SDS011;64899;42.660;23.268;2023-04-06T04:31:25;10.50;;;7.53;;
29788;SDS011;64899;42.660;23.268;2023-04-06T04:33:51;10.77;;;7.88;;
29788;SDS011;64899;42.660;23.268;2023-04-06T04:36:16;11.55;;;7.47;;
29788;SDS011;64899;42.660;23.268;2023-04-06T04:38:42;12.32;;;8.50;;
29788;SDS011;64899;42.660;23.268;2023-04-06T04:41:07;14.20;;;8.20;;
29788;SDS011;64899;42.660;23.268;2023-04-06T04:43:32;11.82;;;7.80;;
29788;SDS011;64899;42.660;23.268;2023-04-06T04:45:58;11.00;;;6.90;;
29788;SDS011;64899;42.660;23.268;2023-04-06T04:48:24;14.70;;;8.68;;
29788;SDS011;64899;42.660;23.268;2023-04-06T04:50:50;12.90;;;8.75;;
29788;SDS011;64899;42.660;23.268;2023-04-06T04:53:15;13.50;;;8.48;;
29788;SDS011;64899;42.660;23.268;2023-04-06T04:55:41;12.38;;;8.57;;
29788;SDS011;64899;42.660;23.268;2023-04-06T04:58:06;12.25;;;8.63;;
29788;SDS011;64899;42.660;23.268;2023-04-06T05:00:33;13.27;;;9.13;;
29788;SDS011;64899;42.660;23.268;2023-04-06T05:02:59;14.23;;;8.93;;
29788;SDS011;64899;42.660;23.268;2023-04-06T05:05:25;13.05;;;8.55;;
29788;SDS011;64899;42.660;23.268;2023-04-06T05:07:50;14.80;;;9.80;;
29788;SDS011;64899;42.660;23.268;2023-04-06T05:10:15;15.95;;;9.68;;
29788;SDS011;64899;42.660;23.268;2023-04-06T05:12:41;11.30;;;8.45;;
29788;SDS011;64899;42.660;23.268;2023-04-06T05:15:06;14.27;;;8.98;;
29788;SDS011;64899;42.660;23.268;2023-04-06T05:17:33;13.65;;;9.32;;
29788;SDS011;64899;42.660;23.268;2023-04-06T05:19:58;11.82;;;9.00;;
29788;SDS011;64899;42.660;23.268;2023-04-06T05:22:24;14.00;;;9.43;;
29788;SDS011;64899;42.660;23.268;2023-04-06T05:24:50;14.35;;;9.35;;
29788;SDS011;64899;42.660;23.268;2023-04-06T05:27:15;13.20;;;9.45;;
29788;SDS011;64899;42.660;23.268;2023-04-06T05:29:41;18.02;;;11.05;;
29788;SDS011;64899;42.660;23.268;2023-04-06T05:32:06;14.30;;;9.20;;
29788;SDS011;64899;42.660;23.268;2023-04-06T05:34:31;14.23;;;9.27;;
29788;SDS011;64899;42.660;23.268;2023-04-06T05:36:57;14.60;;;9.32;;
29788;SDS011;64899;42.660;23.268;2023-04-06T05:39:22;15.93;;;10.27;;
29788;SDS011;64899;42.660;23.268;2023-04-06T05:41:48;14.95;;;10.25;;
29788;SDS011;64899;42.660;23.268;2023-04-06T05:44:14;16.00;;;9.77;;
29788;SDS011;64899;42.660;23.268;2023-04-06T05:46:39;23.33;;;12.70;;
29788;SDS011;64899;42.660;23.268;2023-04-06T05:49:05;17.52;;;10.50;;
29788;SDS011;64899;42.660;23.268;2023-04-06T05:51:30;13.25;;;9.65;;
29788;SDS011;64899;42.660;23.268;2023-04-06T05:53:56;14.40;;;10.13;;
29788;SDS011;64899;42.660;23.268;2023-04-06T05:56:23;15.50;;;10.50;;
29788;SDS011;64899;42.660;23.268;2023-04-06T05:58:49;16.05;;;11.07;;
29788;SDS011;64899;42.660;23.268;2023-04-06T06:01:14;15.40;;;10.23;;
29788;SDS011;64899;42.660;23.268;2023-04-06T06:03:40;16.17;;;10.45;;
29788;SDS011;64899;42.660;23.268;2023-04-06T06:06:06;16.58;;;10.90;;
29788;SDS011;64899;42.660;23.268;2023-04-06T06:08:31;18.08;;;10.85;;
29788;SDS011;64899;42.660;23.268;2023-04-06T06:10:57;14.07;;;10.30;;
29788;SDS011;64899;42.660;23.268;2023-04-06T06:13:23;16.15;;;10.68;;
29788;SDS011;64899;42.660;23.268;2023-04-06T06:15:49;13.95;;;9.32;;
29788;SDS011;64899;42.660;23.268;2023-04-06T06:18:14;16.25;;;10.68;;
29788;SDS011;64899;42.660;23.268;2023-04-06T06:20:40;16.10;;;9.13;;
29788;SDS011;64899;42.660;23.268;2023-04-06T06:23:05;14.90;;;9.52;;
29788;SDS011;64899;42.660;23.268;2023-04-06T06:25:31;15.02;;;10.52;;
29788;SDS011;64899;42.660;23.268;2023-04-06T06:27:57;13.77;;;9.38;;
29788;SDS011;64899;42.660;23.268;2023-04-06T06:30:22;15.82;;;10.23;;
29788;SDS011;64899;42.660;23.268;2023-04-06T06:32:48;17.48;;;10.65;;
29788;SDS011;64899;42.660;23.268;2023-04-06T06:35:13;16.45;;;10.15;;
29788;SDS011;64899;42.660;23.268;2023-04-06T06:37:39;15.55;;;10.40;;
29788;SDS011;64899;42.660;23.268;2023-04-06T06:40:05;13.00;;;8.80;;
29788;SDS011;64899;42.660;23.268;2023-04-06T06:42:30;14.55;;;9.70;;
29788;SDS011;64899;42.660;23.268;2023-04-06T06:44:56;14.98;;;9.02;;
29788;SDS011;64899;42.660;23.268;2023-04-06T06:47:21;18.20;;;10.05;;
29788;SDS011;64899;42.660;23.268;2023-04-06T06:49:47;17.05;;;10.32;;
29788;SDS011;64899;42.660;23.268;2023-04-06T06:52:12;13.40;;;9.18;;
29788;SDS011;64899;42.660;23.268;2023-04-06T06:54:37;11.95;;;8.45;;
29788;SDS011;64899;42.660;23.268;2023-04-06T06:57:03;14.55;;;9.82;;
29788;SDS011;64899;42.660;23.268;2023-04-06T06:59:28;15.15;;;10.07;;
29788;SDS011;64899;42.660;23.268;2023-04-06T07:01:54;14.25;;;9.98;;
29788;SDS011;64899;42.660;23.268;2023-04-06T07:04:20;17.17;;;10.02;;
29788;SDS011;64899;42.660;23.268;2023-04-06T07:06:45;17.30;;;10.68;;
29788;SDS011;64899;42.660;23.268;2023-04-06T07:09:11;15.80;;;9.55;;
29788;SDS011;64899;42.660;23.268;2023-04-06T07:11:36;15.40;;;9.85;;
29788;SDS011;64899;42.660;23.268;2023-04-06T07:14:01;14.88;;;10.45;;
29788;SDS011;64899;42.660;23.268;2023-04-06T07:16:27;14.30;;;9.50;;
29788;SDS011;64899;42.660;23.268;2023-04-06T07:18:52;12.63;;;8.88;;
29788;SDS011;64899;42.660;23.268;2023-04-06T07:21:18;14.23;;;9.32;;
29788;SDS011;64899;42.660;23.268;2023-04-06T07:23:43;13.27;;;9.02;;
29788;SDS011;64899;42.660;23.268;2023-04-06T07:26:09;14.23;;;9.38;;
29788;SDS011;64899;42.660;23.268;2023-04-06T07:28:34;13.18;;;9.38;;
29788;SDS011;64899;42.660;23.268;2023-04-06T07:31:00;17.25;;;9.27;;
29788;SDS011;64899;42.660;23.268;2023-04-06T07:33:25;14.13;;;9.57;;
29788;SDS011;64899;42.660;23.268;2023-04-06T07:35:54;13.13;;;9.20;;
29788;SDS011;64899;42.660;23.268;2023-04-06T07:38:20;20.15;;;10.57;;
29788;SDS011;64899;42.660;23.268;2023-04-06T07:40:46;12.77;;;9.07;;
29788;SDS011;64899;42.660;23.268;2023-04-06T07:43:11;13.10;;;8.77;;
29788;SDS011;64899;42.660;23.268;2023-04-06T07:45:36;13.32;;;8.90;;
29788;SDS011;64899;42.660;23.268;2023-04-06T07:48:02;14.98;;;9.55;;
29788;SDS011;64899;42.660;23.268;2023-04-06T07:50:27;17.23;;;10.43;;
29788;SDS011;64899;42.660;23.268;2023-04-06T07:52:53;20.20;;;11.98;;
29788;SDS011;64899;42.660;23.268;2023-04-06T07:55:18;17.58;;;12.07;;
29788;SDS011;64899;42.660;23.268;2023-04-06T07:57:44;15.27;;;10.98;;
29788;SDS011;64899;42.660;23.268;2023-04-06T08:00:10;15.32;;;9.85;;
29788;SDS011;64899;42.660;23.268;2023-04-06T08:02:36;18.45;;;10.27;;
29788;SDS011;64899;42.660;23.268;2023-04-06T08:05:01;25.40;;;11.95;;
29788;SDS011;64899;42.660;23.268;2023-04-06T08:07:27;19.70;;;11.77;;
29788;SDS011;64899;42.660;23.268;2023-04-06T08:09:52;15.82;;;10.88;;
29788;SDS011;64899;42.660;23.268;2023-04-06T08:12:18;19.40;;;11.60;;
29788;SDS011;64899;42.660;23.268;2023-04-06T08:14:43;16.17;;;10.70;;
29788;SDS011;64899;42.660;23.268;2023-04-06T08:17:09;16.25;;;10.52;;
29788;SDS011;64899;42.660;23.268;2023-04-06T08:19:34;13.18;;;9.52;;
29788;SDS011;64899;42.660;23.268;2023-04-06T08:22:00;14.75;;;10.23;;
29788;SDS011;64899;42.660;23.268;2023-04-06T08:24:25;13.30;;;9.82;;
29788;SDS011;64899;42.660;23.268;2023-04-06T08:26:51;14.85;;;9.65;;
29788;SDS011;64899;42.660;23.268;2023-04-06T08:29:17;13.23;;;9.10;;
29788;SDS011;64899;42.660;23.268;2023-04-06T08:31:42;13.13;;;9.38;;
29788;SDS011;64899;42.660;23.268;2023-04-06T08:34:08;11.88;;;8.55;;
29788;SDS011;64899;42.660;23.268;2023-04-06T08:36:33;11.57;;;8.18;;
29788;SDS011;64899;42.660;23.268;2023-04-06T08:38:59;12.40;;;7.85;;
29788;SDS011;64899;42.660;23.268;2023-04-06T08:41:25;11.98;;;7.43;;
29788;SDS011;64899;42.660;23.268;2023-04-06T08:43:56;13.82;;;8.70;;
29788;SDS011;64899;42.660;23.268;2023-04-06T08:46:23;12.18;;;8.40;;
29788;SDS011;64899;42.660;23.268;2023-04-06T08:48:54;9.98;;;7.55;;
29788;SDS011;64899;42.660;23.268;2023-04-06T08:51:20;10.55;;;7.78;;
29788;SDS011;64899;42.660;23.268;2023-04-06T08:53:52;14.07;;;8.60;;
29788;SDS011;64899;42.660;23.268;2023-04-06T08:56:19;12.70;;;8.57;;
29788;SDS011;64899;42.660;23.268;2023-04-06T08:58:46;11.48;;;8.50;;
29788;SDS011;64899;42.660;23.268;2023-04-06T09:01:12;14.43;;;10.40;;
29788;SDS011;64899;42.660;23.268;2023-04-06T09:03:40;13.00;;;9.98;;
29788;SDS011;64899;42.660;23.268;2023-04-06T09:06:06;13.25;;;8.75;;
29788;SDS011;64899;42.660;23.268;2023-04-06T09:08:35;11.05;;;7.60;;
29788;SDS011;64899;42.660;23.268;2023-04-06T09:11:03;16.38;;;9.40;;
29788;SDS011;64899;42.660;23.268;2023-04-06T09:13:28;13.00;;;9.05;;
29788;SDS011;64899;42.660;23.268;2023-04-06T09:15:58;15.35;;;9.38;;
29788;SDS011;64899;42.660;23.268;2023-04-06T09:18:32;12.65;;;9.00;;
29788;SDS011;64899;42.660;23.268;2023-04-06T09:20:59;16.30;;;9.05;;
29788;SDS011;64899;42.660;23.268;2023-04-06T09:23:28;14.23;;;9.50;;
29788;SDS011;64899;42.660;23.268;2023-04-06T09:26:10;12.15;;;8.93;;
29788;SDS011;64899;42.660;23.268;2023-04-06T09:28:46;14.93;;;9.63;;
29788;SDS011;64899;42.660;23.268;2023-04-06T09:31:13;14.60;;;9.02;;
29788;SDS011;64899;42.660;23.268;2023-04-06T09:33:59;12.68;;;7.55;;
29788;SDS011;64899;42.660;23.268;2023-04-06T09:36:29;12.45;;;8.93;;
29788;SDS011;64899;42.660;23.268;2023-04-06T09:38:58;13.77;;;9.85;;
29788;SDS011;64899;42.660;23.268;2023-04-06T09:41:32;12.68;;;9.07;;
29788;SDS011;64899;42.660;23.268;2023-04-06T09:46:32;12.10;;;8.90;;
29788;SDS011;64899;42.660;23.268;2023-04-06T09:49:00;15.10;;;9.15;;
29788;SDS011;64899;42.660;23.268;2023-04-06T09:51:26;11.88;;;8.90;;
29788;SDS011;64899;42.660;23.268;2023-04-06T09:53:55;13.73;;;8.95;;
29788;SDS011;64899;42.660;23.268;2023-04-06T09:56:26;12.30;;;8.05;;
29788;SDS011;64899;42.660;23.268;2023-04-06T09:58:54;11.07;;;8.45;;
29788;SDS011;64899;42.660;23.268;2023-04-06T10:01:21;10.70;;;7.55;;
29788;SDS011;64899;42.660;23.268;2023-04-06T10:06:38;13.68;;;8.55;;
29788;SDS011;64899;42.660;23.268;2023-04-06T10:09:04;11.52;;;8.30;;
29788;SDS011;64899;42.660;23.268;2023-04-06T10:11:33;9.43;;;7.50;;
29788;SDS011;64899;42.660;23.268;2023-04-06T10:13:58;11.65;;;8.63;;
29788;SDS011;64899;42.660;23.268;2023-04-06T10:16:24;10.93;;;8.27;;
29788;SDS011;64899;42.660;23.268;2023-04-06T10:18:53;11.32;;;7.85;;
29788;SDS011;64899;42.660;23.268;2023-04-06T10:21:22;11.88;;;8.02;;
29788;SDS011;64899;42.660;23.268;2023-04-06T10:23:57;9.15;;;7.18;;
29788;SDS011;64899;42.660;23.268;2023-04-06T10:26:24;10.93;;;7.60;;
29788;SDS011;64899;42.660;23.268;2023-04-06T10:28:50;12.35;;;8.07;;
29788;SDS011;64899;42.660;23.268;2023-04-06T10:31:23;10.00;;;7.93;;
29788;SDS011;64899;42.660;23.268;2023-04-06T10:33:56;11.98;;;8.48;;
29788;SDS011;64899;42.660;23.268;2023-04-06T10:36:28;13.23;;;8.57;;
29788;SDS011;64899;42.660;23.268;2023-04-06T10:38:58;10.93;;;8.05;;
29788;SDS011;64899;42.660;23.268;2023-04-06T10:41:31;13.70;;;8.88;;
29788;SDS011;64899;42.660;23.268;2023-04-06T10:43:58;12.80;;;8.27;;
29788;SDS011;64899;42.660;23.268;2023-04-06T10:46:25;10.65;;;7.93;;
29788;SDS011;64899;42.660;23.268;2023-04-06T10:48:51;15.57;;;8.45;;
29788;SDS011;64899;42.660;23.268;2023-04-06T10:51:17;10.32;;;7.97;;
29788;SDS011;64899;42.660;23.268;2023-04-06T10:53:44;13.07;;;8.05;;
29788;SDS011;64899;42.660;23.268;2023-04-06T10:56:15;12.32;;;8.52;;
29788;SDS011;64899;42.660;23.268;2023-04-06T10:58:45;12.18;;;8.23;;
29788;SDS011;64899;42.660;23.268;2023-04-06T11:01:17;14.13;;;8.37;;
29788;SDS011;64899;42.660;23.268;2023-04-06T11:03:47;12.13;;;8.43;;
29788;SDS011;64899;42.660;23.268;2023-04-06T11:06:20;11.32;;;7.60;;
29788;SDS011;64899;42.660;23.268;2023-04-06T11:08:48;10.40;;;7.85;;
29788;SDS011;64899;42.660;23.268;2023-04-06T11:11:15;9.20;;;7.38;;
29788;SDS011;64899;42.660;23.268;2023-04-06T11:16:12;10.93;;;8.10;;
29788;SDS011;64899;42.660;23.268;2023-04-06T11:18:54;9.73;;;7.60;;
29788;SDS011;64899;42.660;23.268;2023-04-06T11:29:19;10.85;;;8.40;;
29788;SDS011;64899;42.660;23.268;2023-04-06T11:31:46;10.85;;;7.00;;
29788;SDS011;64899;42.660;23.268;2023-04-06T11:34:16;10.27;;;7.28;;
29788;SDS011;64899;42.660;23.268;2023-04-06T11:36:47;12.60;;;7.68;;
29788;SDS011;64899;42.660;23.268;2023-04-06T11:39:17;11.35;;;7.57;;
29788;SDS011;64899;42.660;23.268;2023-04-06T11:41:47;11.32;;;7.55;;
29788;SDS011;64899;42.660;23.268;2023-04-06T11:44:14;10.57;;;7.65;;
29788;SDS011;64899;42.660;23.268;2023-04-06T11:46:39;10.35;;;7.45;;
29788;SDS011;64899;42.660;23.268;2023-04-06T11:49:05;12.15;;;8.00;;
29788;SDS011;64899;42.660;23.268;2023-04-06T11:51:35;12.25;;;7.95;;
29788;SDS011;64899;42.660;23.268;2023-04-06T11:54:01;11.57;;;7.65;;
29788;SDS011;64899;42.660;23.268;2023-04-06T11:56:27;14.38;;;9.13;;
29788;SDS011;64899;42.660;23.268;2023-04-06T11:58:57;13.20;;;8.50;;
29788;SDS011;64899;42.660;23.268;2023-04-06T12:01:23;10.90;;;8.65;;
29788;SDS011;64899;42.660;23.268;2023-04-06T12:03:50;15.63;;;7.90;;
29788;SDS011;64899;42.660;23.268;2023-04-06T12:06:16;10.50;;;7.63;;
29788;SDS011;64899;42.660;23.268;2023-04-06T12:08:41;11.80;;;8.15;;
29788;SDS011;64899;42.660;23.268;2023-04-06T12:11:07;12.27;;;8.00;;
29788;SDS011;64899;42.660;23.268;2023-04-06T12:13:32;10.27;;;7.95;;
29788;SDS011;64899;42.660;23.268;2023-04-06T12:15:57;10.52;;;8.05;;
29788;SDS011;64899;42.660;23.268;2023-04-06T12:18:23;9.75;;;8.18;;
29788;SDS011;64899;42.660;23.268;2023-04-06T12:20:48;17.23;;;8.95;;
29788;SDS011;64899;42.660;23.268;2023-04-06T12:23:14;12.55;;;8.77;;
29788;SDS011;64899;42.660;23.268;2023-04-06T12:25:40;12.82;;;8.88;;
29788;SDS011;64899;42.660;23.268;2023-04-06T12:28:06;14.43;;;9.73;;
29788;SDS011;64899;42.660;23.268;2023-04-06T12:30:31;11.80;;;8.98;;
29788;SDS011;64899;42.660;23.268;2023-04-06T12:32:57;12.07;;;7.82;;
29788;SDS011;64899;42.660;23.268;2023-04-06T12:35:23;13.68;;;9.30;;
29788;SDS011;64899;42.660;23.268;2023-04-06T12:37:48;13.20;;;9.30;;
29788;SDS011;64899;42.660;23.268;2023-04-06T12:40:13;11.70;;;8.38;;
29788;SDS011;64899;42.660;23.268;2023-04-06T12:42:39;10.23;;;8.25;;
29788;SDS011;64899;42.660;23.268;2023-04-06T12:45:07;11.25;;;7.80;;
29788;SDS011;64899;42.660;23.268;2023-04-06T12:47:35;11.43;;;7.90;;
29788;SDS011;64899;42.660;23.268;2023-04-06T12:50:01;11.15;;;7.95;;
29788;SDS011;64899;42.660;23.268;2023-04-06T12:52:27;10.35;;;7.68;;
29788;SDS011;64899;42.660;23.268;2023-04-06T12:54:55;11.02;;;7.45;;
29788;SDS011;64899;42.660;23.268;2023-04-06T12:57:21;11.15;;;7.25;;
29788;SDS011;64899;42.660;23.268;2023-04-06T12:59:47;9.60;;;7.50;;
29788;SDS011;64899;42.660;23.268;2023-04-06T13:02:12;9.73;;;7.45;;
29788;SDS011;64899;42.660;23.268;2023-04-06T13:04:37;10.52;;;7.93;;
29788;SDS011;64899;42.660;23.268;2023-04-06T13:07:03;12.18;;;7.55;;
29788;SDS011;64899;42.660;23.268;2023-04-06T13:09:28;11.23;;;7.90;;
29788;SDS011;64899;42.660;23.268;2023-04-06T13:11:54;10.18;;;7.80;;
29788;SDS011;64899;42.660;23.268;2023-04-06T13:14:20;11.13;;;7.00;;
29788;SDS011;64899;42.660;23.268;2023-04-06T13:16:46;11.32;;;8.13;;
29788;SDS011;64899;42.660;23.268;2023-04-06T13:19:11;11.00;;;7.53;;
29788;SDS011;64899;42.660;23.268;2023-04-06T13:21:37;14.13;;;8.38;;
29788;SDS011;64899;42.660;23.268;2023-04-06T13:24:02;10.85;;;8.00;;
29788;SDS011;64899;42.660;23.268;2023-04-06T13:26:29;14.68;;;8.90;;
29788;SDS011;64899;42.660;23.268;2023-04-06T13:28:55;11.00;;;8.20;;
29788;SDS011;64899;42.660;23.268;2023-04-06T13:31:21;12.85;;;8.25;;
29788;SDS011;64899;42.660;23.268;2023-04-06T13:33:47;10.23;;;7.93;;
29788;SDS011;64899;42.660;23.268;2023-04-06T13:36:12;12.23;;;8.25;;
29788;SDS011;64899;42.660;23.268;2023-04-06T13:38:38;10.88;;;8.30;;
29788;SDS011;64899;42.660;23.268;2023-04-06T13:41:04;12.20;;;8.07;;
29788;SDS011;64899;42.660;23.268;2023-04-06T13:43:30;14.25;;;8.13;;
29788;SDS011;64899;42.660;23.268;2023-04-06T13:45:56;12.00;;;7.63;;
29788;SDS011;64899;42.660;23.268;2023-04-06T13:48:23;11.25;;;8.25;;
29788;SDS011;64899;42.660;23.268;2023-04-06T13:50:50;11.95;;;7.97;;
29788;SDS011;64899;42.660;23.268;2023-04-06T13:53:15;11.93;;;8.50;;
29788;SDS011;64899;42.660;23.268;2023-04-06T13:55:41;11.80;;;8.73;;
29788;SDS011;64899;42.660;23.268;2023-04-06T13:58:06;10.27;;;7.90;;
29788;SDS011;64899;42.660;23.268;2023-04-06T14:00:32;11.48;;;8.05;;
29788;SDS011;64899;42.660;23.268;2023-04-06T14:02:57;10.57;;;8.48;;
29788;SDS011;64899;42.660;23.268;2023-04-06T14:05:22;12.40;;;8.85;;
29788;SDS011;64899;42.660;23.268;2023-04-06T14:07:49;13.55;;;8.23;;
29788;SDS011;64899;42.660;23.268;2023-04-06T14:10:14;14.48;;;9.50;;
29788;SDS011;64899;42.660;23.268;2023-04-06T14:12:41;13.68;;;9.10;;
29788;SDS011;64899;42.660;23.268;2023-04-06T14:15:08;12.85;;;8.88;;
29788;SDS011;64899;42.660;23.268;2023-04-06T14:17:34;12.38;;;8.98;;
29788;SDS011;64899;42.660;23.268;2023-04-06T14:19:59;13.45;;;8.68;;
29788;SDS011;64899;42.660;23.268;2023-04-06T14:22:25;11.68;;;8.52;;
29788;SDS011;64899;42.660;23.268;2023-04-06T14:24:51;9.00;;;7.43;;
29788;SDS011;64899;42.660;23.268;2023-04-06T14:27:16;10.77;;;7.45;;
29788;SDS011;64899;42.660;23.268;2023-04-06T14:29:41;12.45;;;8.40;;
29788;SDS011;64899;42.660;23.268;2023-04-06T14:32:07;10.32;;;8.50;;